Time;durP1;ratioP1;P1;durP2;ratioP2;P2;SDS_P1;SDS_P2;PMS_P1;PMS_P2;Temp;Humidity;BMP_temperature;BMP_pressure;BME280_temperature;BME280_humidity;BME280_pressure;Samples;Min_cycle;Max_cycle;Signal;HPM_P1;HPM_P2
2021/12/10 00:01:55;;;;;;;1.83;1.10;;;18.60;99.90;;;;;;5068811;28;20024;-69
2021/12/10 00:04:29;;;;;;;0.68;0.57;;;18.10;99.90;;;;;;5068355;28;20028;-65
2021/12/10 00:07:05;;;;;;;1.23;0.88;;;17.60;99.90;;;;;;5068246;28;20587;-68
2021/12/10 00:09:42;;;;;;;2.78;1.05;;;17.10;99.90;;;;;;5070201;28;20027;-68
2021/12/10 00:12:15;;;;;;;2.97;0.60;;;16.60;99.90;;;;;;5069470;28;20428;-68
2021/12/10 00:14:43;;;;;;;2.33;0.40;;;16.30;99.90;;;;;;5070001;28;20016;-74
2021/12/10 00:17:13;;;;;;;1.52;0.80;;;16.20;99.90;;;;;;5069310;28;20078;-67
2021/12/10 00:19:48;;;;;;;2.38;0.70;;;16.00;99.90;;;;;;5066912;28;20020;-66
2021/12/10 00:22:33;;;;;;;1.35;0.80;;;15.90;99.90;;;;;;5069462;28;20107;-71
2021/12/10 00:25:01;;;;;;;2.90;0.70;;;15.90;99.90;;;;;;5068178;28;20032;-66
2021/12/10 00:27:28;;;;;;;1.80;0.77;;;15.90;99.90;;;;;;5070136;28;20366;-75
2021/12/10 00:30:05;;;;;;;1.50;0.60;;;15.80;99.90;;;;;;5070283;28;20074;-69
2021/12/10 00:32:38;;;;;;;1.60;0.90;;;15.80;99.90;;;;;;5070774;28;20461;-65
2021/12/10 00:35:13;;;;;;;3.78;0.93;;;15.80;99.90;;;;;;5070614;28;20027;-65
2021/12/10 00:37:40;;;;;;;1.92;0.70;;;15.80;99.90;;;;;;5070621;28;20120;-65
2021/12/10 00:40:09;;;;;;;1.65;0.65;;;15.50;99.90;;;;;;5069267;28;20028;-67
2021/12/10 00:42:37;;;;;;;0.93;0.55;;;15.10;99.90;;;;;;5070756;28;20023;-64
2021/12/10 00:45:07;;;;;;;2.20;0.60;;;14.80;99.90;;;;;;5067628;28;20055;-71
2021/12/10 00:47:36;;;;;;;1.38;0.88;;;14.50;99.90;;;;;;5070400;28;20041;-69
2021/12/10 00:50:06;;;;;;;0.88;0.45;;;14.20;99.90;;;;;;5068299;28;20024;-68
2021/12/10 00:52:33;;;;;;;3.75;1.10;;;14.10;99.90;;;;;;5068487;28;20021;-67
2021/12/10 00:55:00;;;;;;;4.75;1.45;;;14.00;99.90;;;;;;5068403;28;20154;-68
2021/12/10 00:57:27;;;;;;;0.98;0.73;;;14.00;99.90;;;;;;5068273;28;20119;-69
2021/12/10 00:59:54;;;;;;;2.60;0.80;;;14.00;99.90;;;;;;5068817;28;20052;-71
2021/12/10 01:02:24;;;;;;;0.85;0.68;;;14.10;99.90;;;;;;5068463;28;20025;-68
2021/12/10 01:04:57;;;;;;;1.92;0.80;;;14.10;99.90;;;;;;5069548;28;20503;-66
2021/12/10 01:07:29;;;;;;;1.52;0.90;;;14.20;99.90;;;;;;5067763;28;20031;-72
2021/12/10 01:09:59;;;;;;;0.73;0.70;;;14.30;99.90;;;;;;5069423;28;20035;-69
2021/12/10 01:12:33;;;;;;;2.35;1.35;;;14.30;99.90;;;;;;5069682;28;20028;-66
2021/12/10 01:29:18;;;;;;;1.73;0.85;;;14.50;99.90;;;;;;5069417;28;20019;-66
2021/12/10 01:31:46;;;;;;;1.17;0.65;;;14.50;99.90;;;;;;5066392;28;20035;-65
2021/12/10 01:34:14;;;;;;;3.25;1.00;;;14.50;99.90;;;;;;5067866;28;20024;-71
2021/12/10 01:36:41;;;;;;;1.27;0.98;;;14.60;99.90;;;;;;5068609;28;20113;-65
2021/12/10 01:39:12;;;;;;;2.92;1.10;;;14.80;99.90;;;;;;5069350;28;20620;-73
2021/12/10 01:41:42;;;;;;;3.42;1.58;;;15.00;99.90;;;;;;5068699;28;20020;-65
2021/12/10 01:44:26;;;;;;;3.60;0.90;;;15.20;99.90;;;;;;5067222;28;20513;-68
2021/12/10 01:46:54;;;;;;;2.58;1.00;;;15.40;99.90;;;;;;5068062;28;20028;-66
2021/12/10 01:49:21;;;;;;;2.33;0.80;;;15.70;99.90;;;;;;5065715;28;20505;-66
2021/12/10 01:51:48;;;;;;;2.00;1.17;;;16.00;99.90;;;;;;5068204;28;20263;-72
2021/12/10 01:54:23;;;;;;;1.27;0.73;;;16.30;99.90;;;;;;5067123;28;20404;-72
2021/12/10 01:56:52;;;;;;;0.95;0.70;;;16.80;99.90;;;;;;5068324;28;20024;-69
2021/12/10 01:59:20;;;;;;;1.55;0.93;;;17.20;99.90;;;;;;5064933;28;20412;-66
2021/12/10 02:01:51;;;;;;;16.08;10.32;;;17.40;99.90;;;;;;5068419;28;20476;-69
2021/12/10 02:04:23;;;;;;;3.47;1.92;;;17.70;99.90;;;;;;5072213;28;20086;-68
2021/12/10 02:06:51;;;;;;;4.60;1.40;;;18.00;99.90;;;;;;5072113;28;20465;-67
2021/12/10 02:09:20;;;;;;;1.88;1.10;;;18.30;99.90;;;;;;5068165;28;20027;-67
2021/12/10 02:11:47;;;;;;;1.98;1.08;;;18.50;99.90;;;;;;5072442;28;20020;-69
2021/12/10 02:14:14;;;;;;;1.80;1.40;;;18.80;99.90;;;;;;5072258;28;20039;-67
2021/12/10 02:16:43;;;;;;;2.35;1.33;;;19.20;99.90;;;;;;5072232;28;20408;-68
2021/12/10 02:19:14;;;;;;;1.70;0.95;;;19.70;99.90;;;;;;5072859;28;20078;-74
2021/12/10 02:21:45;;;;;;;1.77;0.98;;;20.30;99.90;;;;;;5067794;28;20017;-75
2021/12/10 02:24:14;;;;;;;1.75;0.90;;;20.50;99.90;;;;;;5072199;28;20039;-74
2021/12/10 02:26:56;;;;;;;0.85;0.70;;;20.30;99.90;;;;;;5070066;28;20028;-69
2021/12/10 02:29:31;;;;;;;1.17;0.70;;;19.90;99.90;;;;;;5070435;28;20027;-76
2021/12/10 02:31:58;;;;;;;1.00;0.73;;;19.60;99.90;;;;;;5069904;28;20028;-76
2021/12/10 02:34:26;;;;;;;1.98;1.00;;;19.50;99.90;;;;;;5072762;28;20054;-71
2021/12/10 02:36:55;;;;;;;1.48;1.05;;;19.20;99.90;;;;;;5071358;28;20029;-68
2021/12/10 02:39:25;;;;;;;1.15;0.93;;;19.10;99.90;;;;;;5071807;28;20067;-68
2021/12/10 02:41:52;;;;;;;1.45;0.73;;;19.00;99.90;;;;;;5072455;28;20043;-69
2021/12/10 02:44:23;;;;;;;1.77;1.00;;;18.90;99.90;;;;;;5071336;28;20529;-68
2021/12/10 02:46:51;;;;;;;3.45;1.13;;;18.70;99.90;;;;;;5072513;28;20045;-69
2021/12/10 02:49:19;;;;;;;2.63;1.42;;;18.50;99.90;;;;;;5071841;28;20086;-68
2021/12/10 02:51:49;;;;;;;1.33;0.60;;;18.40;99.90;;;;;;5070806;28;20021;-67
2021/12/10 02:54:31;;;;;;;2.72;0.75;;;18.20;99.90;;;;;;5070181;28;20024;-69
2021/12/10 02:56:58;;;;;;;3.78;2.13;;;18.00;99.90;;;;;;5070401;28;20083;-66
2021/12/10 02:59:25;;;;;;;4.38;2.47;;;18.00;99.90;;;;;;5071892;28;20060;-64
2021/12/10 03:01:54;;;;;;;1.15;0.73;;;18.10;99.90;;;;;;5071386;28;20024;-71
2021/12/10 03:04:21;;;;;;;1.17;0.50;;;18.10;99.90;;;;;;5084046;28;20202;-69
2021/12/10 03:06:56;;;;;;;3.40;2.28;;;18.30;99.90;;;;;;5069321;28;20472;-67
2021/12/10 03:09:24;;;;;;;1.67;0.73;;;18.50;99.90;;;;;;5069071;28;20496;-70
2021/12/10 03:11:55;;;;;;;1.52;0.80;;;18.40;99.90;;;;;;5072064;28;20029;-66
2021/12/10 03:14:25;;;;;;;0.45;0.43;;;18.30;99.90;;;;;;5071625;28;20029;-66
2021/12/10 03:16:55;;;;;;;5.88;0.50;;;18.30;99.90;;;;;;5071125;28;20023;-66
2021/12/10 03:19:22;;;;;;;1.65;0.50;;;18.10;99.90;;;;;;5069233;28;20514;-69
2021/12/10 03:21:51;;;;;;;0.90;0.30;;;18.10;99.90;;;;;;5070652;28;20385;-69
2021/12/10 03:24:25;;;;;;;2.60;0.50;;;18.00;99.90;;;;;;5071259;28;20023;-71
2021/12/10 03:26:54;;;;;;;0.55;0.28;;;18.10;99.90;;;;;;5071568;28;20024;-70
2021/12/10 03:29:27;;;;;;;2.33;0.50;;;18.20;99.90;;;;;;5068686;28;20142;-74
2021/12/10 03:31:56;;;;;;;1.92;0.60;;;18.30;99.90;;;;;;5071060;28;20032;-66
2021/12/10 03:34:26;;;;;;;1.50;0.60;;;18.50;99.90;;;;;;5069628;28;20457;-72
2021/12/10 03:36:53;;;;;;;1.95;0.93;;;18.70;99.90;;;;;;5070505;28;20048;-67
2021/12/10 03:39:24;;;;;;;2.17;0.40;;;19.10;99.90;;;;;;5068539;28;20029;-73
2021/12/10 03:41:54;;;;;;;0.35;0.20;;;19.20;99.90;;;;;;5065965;28;20028;-70
2021/12/10 03:44:21;;;;;;;0.25;0.25;;;19.30;99.90;;;;;;5068346;28;20036;-68
2021/12/10 03:46:48;;;;;;;2.05;0.30;;;19.30;99.90;;;;;;5066949;28;20025;-68
2021/12/10 03:49:15;;;;;;;1.27;0.50;;;19.40;99.90;;;;;;5068497;28;20028;-68
2021/12/10 03:51:43;;;;;;;2.83;0.50;;;19.60;99.90;;;;;;5065909;28;20502;-69
2021/12/10 03:54:11;;;;;;;0.20;0.20;;;19.70;99.90;;;;;;5067939;28;20017;-74
2021/12/10 03:56:40;;;;;;;0.95;0.20;;;19.80;99.90;;;;;;5067988;28;20095;-75
2021/12/10 03:59:12;;;;;;;2.30;0.30;;;19.90;99.90;;;;;;5067955;28;20065;-72
2021/12/10 04:01:42;;;;;;;11.60;0.70;;;20.00;99.90;;;;;;5064576;28;20036;-70
2021/12/10 04:04:18;;;;;;;5.15;0.60;;;20.00;99.90;;;;;;5066642;28;20242;-72
2021/12/10 04:06:45;;;;;;;0.40;0.30;;;20.90;99.90;;;;;;5065908;28;20103;-72
2021/12/10 04:09:12;;;;;;;3.72;0.32;;;21.20;99.90;;;;;;5067939;28;20020;-71
2021/12/10 04:11:40;;;;;;;0.20;0.15;;;21.10;99.90;;;;;;5067955;28;20043;-69
2021/12/10 04:14:08;;;;;;;1.45;0.22;;;21.10;99.90;;;;;;5067845;28;20029;-68
2021/12/10 04:16:36;;;;;;;0.88;0.30;;;20.90;99.90;;;;;;5067537;28;20040;-71
2021/12/10 04:19:07;;;;;;;2.38;0.35;;;20.70;99.90;;;;;;5067840;28;20090;-68
2021/12/10 04:21:40;;;;;;;1.30;0.25;;;20.70;99.90;;;;;;5066450;28;20025;-72
2021/12/10 04:24:21;;;;;;;1.83;0.45;;;21.10;99.90;;;;;;5067076;28;20032;-74
2021/12/10 04:26:48;;;;;;;0.57;0.40;;;21.40;99.90;;;;;;5066052;28;20103;-72
2021/12/10 04:29:19;;;;;;;0.52;0.20;;;21.30;99.90;;;;;;5067603;28;20539;-76
2021/12/10 04:31:48;;;;;;;3.15;0.65;;;21.20;99.90;;;;;;5064045;28;20055;-73
2021/12/10 04:34:15;;;;;;;0.10;0.10;;;21.20;99.90;;;;;;5066969;28;20104;-68
2021/12/10 04:36:43;;;;;;;0.10;0.10;;;21.00;99.90;;;;;;5063806;28;20033;-68
2021/12/10 04:39:10;;;;;;;0.28;0.17;;;20.80;99.90;;;;;;5067069;28;20024;-72
2021/12/10 04:41:38;;;;;;;0.57;0.10;;;20.70;99.90;;;;;;5067453;28;20035;-69
2021/12/10 04:44:05;;;;;;;0.10;0.10;;;20.50;99.90;;;;;;5066589;28;20051;-72
2021/12/10 04:46:32;;;;;;;0.68;0.10;;;20.20;99.90;;;;;;5067251;28;20058;-67
2021/12/10 04:49:03;;;;;;;1.30;0.20;;;20.00;99.90;;;;;;5066050;28;20074;-73
2021/12/10 04:51:38;;;;;;;0.10;0.10;;;19.90;99.90;;;;;;5063001;28;20342;-72
2021/12/10 04:54:07;;;;;;;1.73;0.28;;;19.70;99.90;;;;;;5064537;28;20266;-68
2021/12/10 04:56:39;;;;;;;1.63;0.55;;;19.50;99.90;;;;;;5065974;28;20048;-71
2021/12/10 04:59:11;;;;;;;1.63;0.63;;;19.50;99.90;;;;;;5066385;28;20047;-73
2021/12/10 05:01:39;;;;;;;0.20;0.10;;;19.40;99.90;;;;;;5063886;28;20052;-69
2021/12/10 05:04:10;;;;;;;1.25;0.50;;;19.30;99.90;;;;;;5065749;28;20577;-73
2021/12/10 05:06:38;;;;;;;0.30;0.20;;;19.10;99.90;;;;;;5066663;28;20603;-72
2021/12/10 05:09:08;;;;;;;1.85;0.20;;;19.20;99.90;;;;;;5066502;28;20036;-69
2021/12/10 05:11:35;;;;;;;0.90;0.25;;;19.10;99.90;;;;;;5064503;28;20024;-68
2021/12/10 05:14:03;;;;;;;0.50;0.20;;;19.10;99.90;;;;;;5065023;28;20028;-67
2021/12/10 05:16:30;;;;;;;0.60;0.22;;;19.10;99.90;;;;;;5066548;28;20111;-73
2021/12/10 05:19:00;;;;;;;0.10;0.10;;;19.10;99.90;;;;;;5065146;28;20035;-69
2021/12/10 05:21:30;;;;;;;0.13;0.13;;;19.00;99.90;;;;;;5066354;28;20048;-66
2021/12/10 05:23:58;;;;;;;0.25;0.10;;;18.90;99.90;;;;;;5065504;28;20046;-70
2021/12/10 05:26:26;;;;;;;0.08;0.08;;;18.80;99.90;;;;;;5066838;28;20035;-74
2021/12/10 05:28:55;;;;;;;0.10;0.10;;;18.70;99.90;;;;;;5066965;28;20039;-69
2021/12/10 05:31:22;;;;;;;1.17;0.10;;;18.70;99.90;;;;;;5063618;28;20024;-68
2021/12/10 05:33:49;;;;;;;2.90;0.20;;;18.90;99.90;;;;;;5058909;28;20115;-69
2021/12/10 05:36:17;;;;;;;2.13;0.20;;;19.10;99.90;;;;;;5065235;28;20378;-69
2021/12/10 05:38:44;;;;;;;0.10;0.10;;;19.30;99.90;;;;;;5068844;28;20024;-71
2021/12/10 05:41:15;;;;;;;0.28;0.10;;;19.30;99.90;;;;;;5067261;28;20044;-69
2021/12/10 05:46:20;;;;;;;0.77;0.20;;;19.50;99.90;;;;;;5106959;27;20409;-73
2021/12/10 05:48:47;;;;;;;0.10;0.10;;;19.50;99.90;;;;;;5090627;28;20050;-72
2021/12/10 05:51:15;;;;;;;0.45;0.10;;;19.30;99.90;;;;;;5092871;28;20030;-72
2021/12/10 05:53:42;;;;;;;0.20;0.20;;;19.00;99.90;;;;;;5108034;27;20441;-71
2021/12/10 05:56:09;;;;;;;0.90;0.30;;;19.10;99.90;;;;;;5094591;28;20435;-68
2021/12/10 05:58:38;;;;;;;0.20;0.13;;;19.10;99.90;;;;;;5092471;28;20116;-69
2021/12/10 06:01:09;;;;;;;0.32;0.20;;;19.20;99.90;;;;;;5105952;27;20578;-74
2021/12/10 06:03:38;;;;;;;0.20;0.17;;;19.10;99.90;;;;;;5110887;28;20347;-71
2021/12/10 06:06:07;;;;;;;1.88;0.43;;;19.20;99.90;;;;;;5086542;28;20027;-70
2021/12/10 06:08:35;;;;;;;1.85;0.40;;;19.20;99.90;;;;;;5092274;28;20051;-72
2021/12/10 06:11:03;;;;;;;0.50;0.25;;;19.10;99.90;;;;;;5110507;28;20391;-70
2021/12/10 06:13:31;;;;;;;0.35;0.20;;;18.90;99.90;;;;;;4400633;28;10000836;-70
2021/12/10 06:15:58;;;;;;;0.40;0.20;;;18.90;99.90;;;;;;5104589;27;20449;-69
2021/12/10 06:18:24;;;;;;;1.55;0.30;;;18.90;99.90;;;;;;5104214;28;20119;-72
2021/12/10 06:20:54;;;;;;;1.08;0.20;;;18.90;99.90;;;;;;5107395;28;20024;-71
2021/12/10 06:23:22;;;;;;;0.68;0.20;;;19.00;99.90;;;;;;5108228;28;20031;-70
2021/12/10 06:25:49;;;;;;;0.60;0.40;;;19.00;99.90;;;;;;5088828;28;20023;-70
2021/12/10 06:28:17;;;;;;;1.75;0.38;;;18.90;99.90;;;;;;5105081;28;20087;-70
2021/12/10 06:30:47;;;;;;;0.20;0.15;;;18.90;99.90;;;;;;5108682;27;20085;-70
2021/12/10 06:33:17;;;;;;;1.45;0.20;;;18.80;99.90;;;;;;5091921;27;20085;-71
2021/12/10 06:35:47;;;;;;;0.10;0.10;;;18.80;99.90;;;;;;5106929;27;20073;-69
2021/12/10 06:38:14;;;;;;;0.52;0.20;;;18.70;99.90;;;;;;5107886;27;20035;-70
2021/12/10 06:40:43;;;;;;;0.10;0.10;;;18.60;99.90;;;;;;5086948;28;20088;-68
2021/12/10 06:43:10;;;;;;;0.35;0.10;;;18.40;99.90;;;;;;5101499;27;20072;-74
2021/12/10 06:45:39;;;;;;;0.65;0.15;;;18.30;99.90;;;;;;5098487;28;20042;-72
2021/12/10 06:48:09;;;;;;;1.98;0.25;;;18.40;99.90;;;;;;5079991;28;20028;-71
2021/12/10 06:50:41;;;;;;;1.77;0.22;;;18.50;99.90;;;;;;5101739;27;20035;-73
2021/12/10 06:53:08;;;;;;;0.10;0.10;;;18.40;99.90;;;;;;5099729;28;20035;-70
2021/12/10 06:55:36;;;;;;;0.10;0.10;;;18.40;99.90;;;;;;5085615;28;20471;-67
2021/12/10 06:58:05;;;;;;;1.17;0.20;;;18.40;99.90;;;;;;5106075;28;20024;-71
2021/12/10 07:00:41;;;;;;;0.43;0.20;;;18.40;99.90;;;;;;5086716;28;20064;-68
2021/12/10 07:03:17;;;;;;;1.25;0.22;;;18.40;99.90;;;;;;5107731;28;20102;-70
2021/12/10 07:05:45;;;;;;;0.57;0.40;;;18.50;99.90;;;;;;5105223;28;20031;-71
2021/12/10 07:08:13;;;;;;;0.00;0.00;;;18.50;99.90;;;;;;5108122;28;20435;-68
2021/12/10 07:10:40;;;;;;;2.65;0.90;;;18.40;99.90;;;;;;5107495;28;20103;-69
2021/12/10 07:13:09;;;;;;;0.15;0.10;;;18.30;99.90;;;;;;5107108;28;20369;-71
2021/12/10 07:15:40;;;;;;;0.32;0.10;;;18.20;99.90;;;;;;5106331;28;20503;-72
2021/12/10 07:18:07;;;;;;;0.40;0.20;;;18.20;99.90;;;;;;5107416;28;20035;-71
2021/12/10 07:20:36;;;;;;;0.20;0.10;;;18.10;99.90;;;;;;5087858;28;20031;-71
2021/12/10 07:23:03;;;;;;;1.65;0.17;;;18.10;99.90;;;;;;5105637;28;20042;-69
2021/12/10 07:25:30;;;;;;;0.35;0.10;;;17.90;99.90;;;;;;5106480;28;20054;-75
2021/12/10 07:27:57;;;;;;;0.95;0.38;;;17.50;99.90;;;;;;5105665;27;20109;-70
2021/12/10 07:30:26;;;;;;;1.27;0.30;;;17.30;99.90;;;;;;5107209;28;20031;-71
2021/12/10 07:32:54;;;;;;;0.22;0.10;;;17.00;99.90;;;;;;5106713;28;20030;-70
2021/12/10 07:35:21;;;;;;;1.73;0.80;;;16.80;99.90;;;;;;5107554;28;20107;-68
2021/12/10 07:37:49;;;;;;;1.65;0.95;;;16.50;99.90;;;;;;5108075;28;20510;-68
2021/12/10 07:40:21;;;;;;;2.42;1.27;;;16.30;99.90;;;;;;5086258;28;20031;-69
2021/12/10 07:42:48;;;;;;;0.13;0.10;;;16.10;99.90;;;;;;5105288;28;20023;-66
2021/12/10 07:45:16;;;;;;;2.30;0.63;;;16.00;99.90;;;;;;5104519;28;20043;-66
2021/12/10 07:47:45;;;;;;;0.22;0.13;;;15.90;99.90;;;;;;5104945;28;20028;-65
2021/12/10 07:50:15;;;;;;;2.75;0.50;;;15.70;99.90;;;;;;5105782;28;20023;-70
2021/12/10 07:52:45;;;;;;;0.95;0.57;;;15.70;99.90;;;;;;5106456;28;20444;-68
2021/12/10 07:55:15;;;;;;;0.63;0.20;;;15.60;99.90;;;;;;5087902;28;20111;-67
2021/12/10 07:57:43;;;;;;;0.20;0.10;;;15.60;99.90;;;;;;5104548;28;20057;-66
2021/12/10 08:00:14;;;;;;;0.55;0.25;;;15.60;99.90;;;;;;5104546;28;20057;-64
2021/12/10 08:02:41;;;;;;;1.08;0.75;;;15.60;99.90;;;;;;5106318;27;20076;-64
2021/12/10 08:05:09;;;;;;;0.30;0.10;;;15.70;99.90;;;;;;5104842;28;20066;-66
2021/12/10 08:07:36;;;;;;;2.55;0.52;;;15.80;99.90;;;;;;5105012;27;20119;-65
2021/12/10 08:10:06;;;;;;;2.55;0.52;;;15.80;99.90;;;;;;5081529;28;20209;-66
2021/12/10 08:12:33;;;;;;;1.75;0.20;;;15.80;99.90;;;;;;5105867;27;20783;-65
2021/12/10 08:15:01;;;;;;;1.00;0.30;;;15.90;99.90;;;;;;5106079;27;20019;-69
2021/12/10 08:17:28;;;;;;;1.95;0.30;;;15.90;99.90;;;;;;5103286;28;20084;-66
2021/12/10 08:19:55;;;;;;;0.10;0.10;;;16.10;99.90;;;;;;5104215;27;20131;-68
2021/12/10 08:22:22;;;;;;;1.85;0.30;;;16.10;99.90;;;;;;5102436;28;20103;-72
2021/12/10 08:24:49;;;;;;;2.33;0.32;;;16.10;99.90;;;;;;5105271;28;20034;-72
2021/12/10 08:27:17;;;;;;;2.75;0.85;;;16.20;99.90;;;;;;5104677;28;20044;-67
2021/12/10 08:29:45;;;;;;;3.25;0.60;;;16.20;99.90;;;;;;5103446;28;20030;-69
2021/12/10 08:32:16;;;;;;;3.67;0.68;;;16.20;99.90;;;;;;5102798;28;20030;-65
2021/12/10 08:34:43;;;;;;;3.75;0.60;;;16.30;99.90;;;;;;5103021;28;20023;-68
2021/12/10 08:37:10;;;;;;;3.55;0.68;;;16.30;99.90;;;;;;5085574;28;20035;-66
2021/12/10 08:39:38;;;;;;;2.10;0.90;;;16.30;99.90;;;;;;5104488;28;20042;-70
2021/12/10 08:42:05;;;;;;;4.22;1.35;;;16.30;99.90;;;;;;5103152;28;20051;-69
2021/12/10 08:44:33;;;;;;;4.45;0.60;;;16.30;99.90;;;;;;5103394;28;20101;-71
2021/12/10 08:47:00;;;;;;;3.05;0.30;;;16.30;99.90;;;;;;5103744;28;20096;-75
2021/12/10 08:49:28;;;;;;;6.00;0.80;;;16.30;99.90;;;;;;5084505;28;20028;-70
2021/12/10 08:51:57;;;;;;;3.40;0.20;;;16.30;99.90;;;;;;5077976;28;20020;-73
2021/12/10 08:54:29;;;;;;;0.80;0.52;;;16.30;99.90;;;;;;5097646;28;20443;-75
2021/12/10 08:56:57;;;;;;;0.32;0.20;;;16.30;99.90;;;;;;5084467;28;20023;-73
2021/12/10 08:59:25;;;;;;;0.10;0.10;;;16.30;99.90;;;;;;5100228;28;20089;-74
2021/12/10 09:01:59;;;;;;;0.90;0.17;;;16.30;99.90;;;;;;5101540;28;20023;-70
2021/12/10 09:04:29;;;;;;;1.25;0.15;;;16.30;99.90;;;;;;5100923;28;20110;-78
2021/12/10 09:07:02;;;;;;;0.40;0.20;;;16.30;99.90;;;;;;5086369;28;20024;-72
2021/12/10 09:09:31;;;;;;;1.73;0.20;;;16.30;99.90;;;;;;5102009;28;20024;-69
2021/12/10 09:12:01;;;;;;;0.13;0.13;;;16.30;99.90;;;;;;5076880;28;20019;-68
2021/12/10 09:14:35;;;;;;;0.38;0.20;;;16.30;99.90;;;;;;5101220;27;20518;-72
2021/12/10 09:17:03;;;;;;;1.95;0.30;;;16.20;99.90;;;;;;5105947;28;20055;-69
2021/12/10 09:19:31;;;;;;;0.25;0.20;;;16.10;99.90;;;;;;5105500;28;20024;-71
2021/12/10 09:21:58;;;;;;;3.80;1.38;;;16.20;99.90;;;;;;5106215;28;20027;-71
2021/12/10 09:24:25;;;;;;;1.85;0.57;;;16.10;99.90;;;;;;5099788;28;20062;-69
2021/12/10 09:26:58;;;;;;;0.52;0.43;;;16.10;99.90;;;;;;5107484;28;20479;-69
2021/12/10 09:29:30;;;;;;;1.55;0.80;;;16.00;99.90;;;;;;5095119;28;20064;-75
2021/12/10 09:31:58;;;;;;;0.68;0.28;;;16.10;99.90;;;;;;5107292;28;20039;-72
2021/12/10 09:34:25;;;;;;;0.38;0.20;;;16.10;99.90;;;;;;5107171;28;20032;-75
2021/12/10 09:36:53;;;;;;;0.70;0.20;;;16.20;99.90;;;;;;5103789;28;20027;-73
2021/12/10 09:39:21;;;;;;;1.02;0.77;;;16.20;99.90;;;;;;5101475;28;20368;-73
2021/12/10 09:41:50;;;;;;;0.63;0.22;;;16.10;99.90;;;;;;5105513;28;20427;-72
2021/12/10 09:44:17;;;;;;;1.08;0.30;;;16.20;99.90;;;;;;5083855;28;20452;-75
2021/12/10 09:46:46;;;;;;;1.00;0.40;;;16.20;99.90;;;;;;5105448;28;20020;-71
2021/12/10 09:49:14;;;;;;;0.20;0.20;;;16.20;99.90;;;;;;5102522;28;20019;-72
2021/12/10 09:51:49;;;;;;;1.17;0.40;;;16.30;99.90;;;;;;5103332;27;20033;-69
2021/12/10 09:54:20;;;;;;;1.65;0.10;;;16.40;99.90;;;;;;5107034;27;20023;-75
2021/12/10 09:57:05;;;;;;;1.10;0.50;;;16.40;99.90;;;;;;5105604;28;20124;-77
2021/12/10 09:59:34;;;;;;;0.20;0.20;;;16.40;99.90;;;;;;5102478;27;20122;-71
2021/12/10 10:02:02;;;;;;;0.45;0.20;;;16.30;99.90;;;;;;5102503;28;20381;-71
2021/12/10 10:04:34;;;;;;;0.10;0.10;;;16.40;99.90;;;;;;5084269;27;20026;-72
2021/12/10 10:07:08;;;;;;;0.20;0.17;;;16.30;99.90;;;;;;5107743;27;20076;-72
2021/12/10 10:09:35;;;;;;;1.95;0.32;;;16.30;99.90;;;;;;5106273;28;20491;-74
2021/12/10 10:12:09;;;;;;;0.10;0.10;;;16.30;99.90;;;;;;5105765;28;20487;-72
2021/12/10 10:14:38;;;;;;;0.80;0.40;;;16.30;99.90;;;;;;5105669;28;20551;-70
2021/12/10 10:17:07;;;;;;;1.40;0.60;;;16.40;99.90;;;;;;5104311;28;20106;-71
2021/12/10 10:19:35;;;;;;;1.35;1.05;;;16.30;99.90;;;;;;5086262;28;20573;-70
2021/12/10 10:22:06;;;;;;;0.28;0.20;;;16.40;99.90;;;;;;5105596;28;20023;-73
2021/12/10 10:24:34;;;;;;;0.73;0.40;;;16.40;99.90;;;;;;5103629;28;20038;-69
2021/12/10 10:27:09;;;;;;;0.55;0.40;;;16.40;99.90;;;;;;5105988;28;20020;-70
2021/12/10 10:29:39;;;;;;;0.28;0.22;;;16.40;99.90;;;;;;5095132;28;20031;-70
2021/12/10 10:32:11;;;;;;;0.55;0.17;;;16.40;99.90;;;;;;5105667;28;20255;-70
2021/12/10 10:34:45;;;;;;;8.60;5.70;;;16.40;99.90;;;;;;5104388;28;20548;-69
2021/12/10 10:37:13;;;;;;;8.57;5.75;;;16.30;99.90;;;;;;5104118;28;20067;-69
2021/12/10 10:39:43;;;;;;;1.17;0.90;;;16.30;99.90;;;;;;5104651;28;20088;-70
2021/12/10 10:42:15;;;;;;;0.65;0.20;;;16.20;99.90;;;;;;5097386;28;20028;-69
2021/12/10 10:44:43;;;;;;;;;;;16.10;99.90;;;;;;5100176;28;20032;-69
2021/12/10 10:47:11;;;;;;;0.98;0.63;;;16.10;99.90;;;;;;5103657;28;20436;-74
2021/12/10 10:49:38;;;;;;;3.38;0.47;;;16.10;99.90;;;;;;5103896;28;20062;-68
2021/12/10 10:52:19;;;;;;;16.00;11.77;;;16.00;99.90;;;;;;5103249;28;20028;-70
2021/12/10 10:54:48;;;;;;;1.20;0.65;;;15.90;99.90;;;;;;5098167;28;20031;-72
2021/12/10 10:57:26;;;;;;;0.32;0.30;;;15.90;99.90;;;;;;5086511;28;20027;-69
2021/12/10 10:59:58;;;;;;;2.28;1.80;;;16.00;99.90;;;;;;5084318;28;20028;-69
2021/12/10 11:02:37;;;;;;;5.45;3.22;;;16.00;99.90;;;;;;5104685;28;20034;-73
2021/12/10 11:05:13;;;;;;;4.45;3.40;;;16.00;99.90;;;;;;5103791;28;20074;-67
2021/12/10 11:08:01;;;;;;;3.03;1.58;;;16.00;99.90;;;;;;5097631;28;20130;-70
2021/12/10 11:10:33;;;;;;;1.08;0.10;;;16.10;99.90;;;;;;5103598;28;20069;-71
2021/12/10 11:13:20;;;;;;;3.93;0.30;;;16.10;99.90;;;;;;5104850;28;20027;-68
2021/12/10 11:16:10;;;;;;;0.40;0.40;;;16.20;99.90;;;;;;5099597;28;20278;-70
2021/12/10 11:18:42;;;;;;;0.38;0.30;;;16.20;99.90;;;;;;5103477;28;20059;-68
2021/12/10 11:21:10;;;;;;;;;;;16.20;99.90;;;;;;5099949;28;20023;-70
2021/12/10 11:23:39;;;;;;;3.85;0.63;;;16.30;99.90;;;;;;5103539;28;19912;-70
2021/12/10 11:26:07;;;;;;;2.63;0.28;;;16.30;99.90;;;;;;5083618;28;20023;-68
2021/12/10 11:28:38;;;;;;;0.60;0.15;;;16.40;99.90;;;;;;5103734;28;20031;-68
2021/12/10 11:31:18;;;;;;;0.30;0.10;;;16.50;99.90;;;;;;5101487;28;20024;-70
2021/12/10 11:33:50;;;;;;;0.40;0.40;;;16.50;99.90;;;;;;5102500;28;20023;-68
2021/12/10 11:36:26;;;;;;;0.88;0.35;;;16.50;99.90;;;;;;5106600;28;20110;-71
2021/12/10 11:38:56;;;;;;;1.13;0.65;;;16.60;99.90;;;;;;5104828;28;20395;-71
2021/12/10 11:41:27;;;;;;;0.95;0.65;;;16.60;99.90;;;;;;5103001;28;20416;-71
2021/12/10 11:47:24;;;;;;;1.08;0.55;;;16.60;99.90;;;;;;5092479;28;20052;-70
2021/12/10 11:49:49;;;;;;;0.55;0.20;;;16.60;99.90;;;;;;5100364;28;20122;-73
2021/12/10 11:52:23;;;;;;;0.20;0.10;;;16.60;99.90;;;;;;5079579;28;20028;-73
2021/12/10 11:54:54;;;;;;;0.60;0.60;;;16.60;99.90;;;;;;5104924;28;20054;-70
2021/12/10 11:57:35;;;;;;;2.00;0.73;;;16.60;99.90;;;;;;5085901;28;20042;-73
2021/12/10 12:00:08;;;;;;;1.75;0.30;;;16.70;99.90;;;;;;5098482;28;20024;-74
2021/12/10 12:02:46;;;;;;;1.10;0.40;;;16.60;99.90;;;;;;5106309;28;20130;-74
2021/12/10 12:05:17;;;;;;;0.77;0.17;;;16.60;99.90;;;;;;5081933;28;20031;-71
2021/12/10 12:07:46;;;;;;;0.77;0.20;;;16.70;99.90;;;;;;5089523;28;20032;-70
2021/12/10 12:10:42;;;;;;;1.35;0.17;;;16.70;99.90;;;;;;5104617;28;20023;-73
2021/12/10 12:13:43;;;;;;;0.40;0.25;;;16.70;99.90;;;;;;5087882;28;20452;-71
2021/12/10 12:16:13;;;;;;;1.95;0.80;;;16.70;99.90;;;;;;5106625;28;20363;-70
2021/12/10 12:18:48;;;;;;;1.48;0.20;;;16.70;99.90;;;;;;5108315;28;20044;-70
2021/12/10 12:27:18;;;;;;;1.02;0.30;;;16.70;99.90;;;;;;5107035;28;20514;-69
2021/12/10 12:29:55;;;;;;;0.80;0.20;;;16.70;99.90;;;;;;5102483;28;20026;-69
2021/12/10 12:32:43;;;;;;;0.20;0.20;;;16.70;99.90;;;;;;5106875;28;20035;-69
2021/12/10 12:35:18;;;;;;;1.45;0.43;;;16.80;99.90;;;;;;5083587;28;20043;-72
2021/12/10 12:37:45;;;;;;;0.65;0.30;;;16.70;99.90;;;;;;5108529;28;20031;-70
2021/12/10 12:40:13;;;;;;;1.17;0.20;;;16.70;99.90;;;;;;5110356;28;20020;-69
2021/12/10 12:42:46;;;;;;;0.65;0.60;;;16.60;99.90;;;;;;5100676;28;20034;-69
2021/12/10 12:45:19;;;;;;;3.13;1.58;;;16.70;99.90;;;;;;5108589;28;20308;-72
2021/12/10 12:47:52;;;;;;;1.77;0.35;;;16.60;99.90;;;;;;5105487;28;20039;-72
2021/12/10 12:50:26;;;;;;;0.93;0.20;;;16.60;99.90;;;;;;5103693;28;20012;-70
2021/12/10 12:53:03;;;;;;;3.95;0.20;;;16.60;99.90;;;;;;5086961;28;20046;-70
2021/12/10 12:55:49;;;;;;;0.15;0.10;;;16.60;99.90;;;;;;5107200;28;20106;-69
2021/12/10 12:58:22;;;;;;;0.95;0.32;;;16.50;99.90;;;;;;5100606;28;20039;-69
2021/12/10 13:00:57;;;;;;;0.30;0.10;;;16.50;99.90;;;;;;5099890;28;20359;-74
2021/12/10 13:03:51;;;;;;;0.65;0.50;;;16.50;99.90;;;;;;5087976;28;20069;-71
2021/12/10 13:06:33;;;;;;;0.10;0.10;;;16.40;99.90;;;;;;5100346;28;20016;-70
2021/12/10 13:09:09;;;;;;;1.08;0.28;;;16.40;99.90;;;;;;5103902;28;20102;-68
2021/12/10 13:12:04;;;;;;;2.78;0.30;;;16.40;99.90;;;;;;5107687;28;20020;-70
2021/12/10 13:14:57;;;;;;;0.45;0.15;;;16.30;99.90;;;;;;5107521;28;20035;-68
2021/12/10 13:17:37;;;;;;;2.70;0.77;;;16.30;99.90;;;;;;5084040;28;20525;-70
2021/12/10 13:20:19;;;;;;;0.95;0.10;;;16.20;99.90;;;;;;5103697;28;20024;-69
2021/12/10 13:22:48;;;;;;;1.65;0.28;;;16.20;99.90;;;;;;5105402;28;20035;-72
2021/12/10 13:25:18;;;;;;;0.10;0.10;;;16.20;99.90;;;;;;5105977;28;20488;-69
2021/12/10 13:27:46;;;;;;;2.22;0.20;;;16.00;99.90;;;;;;5107263;28;20020;-69
2021/12/10 13:30:18;;;;;;;1.55;0.20;;;16.00;99.90;;;;;;5103318;28;20051;-70
2021/12/10 13:32:47;;;;;;;0.15;0.10;;;15.90;99.90;;;;;;5104418;28;20632;-70